Airfield :
LOGIN :

Register | Disclaimer

   EN    FR    IT 

 










Legend :    VFR   Marginal VFR   IFR   Intensive IFR   Very Intensive IFR
Visi :
Ceiling :
>= 8 km
>= 3000ft
5 to 8 km
1000 to 3000 ft
1500m to 5 km
500 to 1000 ft
800 to 1500m
200 to 500 ft
< 800m
< 200 ft
Symbols :   Thunderstorms  Fog  Heavy snow  Heavy precipitations  Wind > 20 kt
SIGMETs :     Misc.  Thunderstorms  Icing  Turbulence  Mountain Waves  Volcanic Ashes






- Airport Elevation : 313 ft


LFQA - Reims-Prunay

CURRENT METAR :
  • 150930Z AUTO 16006KT 8000 RA OVC010 14/12 Q1008

EXPIRED METARs :
  • 150900Z AUTO 20005KT 170V230 9999 BKN013 BKN035 BKN042 14/12 Q1008
  • 150830Z AUTO VRB02KT 9999 FEW012 BKN030 BKN035 14/12 Q1007
  • 150800Z AUTO VRB02KT 9999 FEW012 OVC034 14/12 Q1007
  • 150730Z AUTO 23003KT 170V310 9999 -RA FEW009 BKN035 OVC043 14/12 Q1007
  • 150700Z AUTO 22006KT 190V260 9999 SCT010 BKN029 OVC034 14/13 Q1007

TAF N/A



MET'MAP, your aeronautical weather chart ! - Copyright ORBIFLY December 2007 - Disclaimer

ORBIFLY MET'MAP TEAM :

Programming & Development : Alexandra Zaïnal
Concept & Development : Baudouin d'Aumeries
Co-Development & Prog : Marc-Olivier Méhu
Technical & hardware support : Manuel Goepfert

Contact : metmap@orbifly.com




SOURCES & CREDITS :

   NOAA